createdAt,value
2019-06-15T00:00:48.083Z,22.12
2019-06-15T00:03:19.891Z,22.11
2019-06-15T00:05:51.895Z,22.10
2019-06-15T00:08:24.148Z,22.08
2019-06-15T00:10:55.978Z,22.04
2019-06-15T00:13:27.682Z,22.01
2019-06-15T00:16:00.202Z,21.94
2019-06-15T00:18:31.930Z,21.87
2019-06-15T00:21:03.812Z,21.81
2019-06-15T00:23:35.673Z,21.78
2019-06-15T00:26:07.396Z,21.78
2019-06-15T00:28:40.592Z,21.76
2019-06-15T00:31:12.960Z,21.73
2019-06-15T00:33:44.609Z,21.64
2019-06-15T00:36:16.231Z,21.54
2019-06-15T00:38:47.880Z,21.46
2019-06-15T00:41:20.837Z,21.44
2019-06-15T00:43:52.754Z,21.42
2019-06-15T00:46:25.265Z,21.41
2019-06-15T00:48:57.172Z,21.38
2019-06-15T00:51:28.871Z,21.31
2019-06-15T00:54:00.639Z,21.27
2019-06-15T00:56:32.288Z,21.26
2019-06-15T00:59:04.130Z,21.25
2019-06-15T01:01:36.671Z,21.26
2019-06-15T01:04:08.313Z,21.24
2019-06-15T01:06:40.420Z,21.21
2019-06-15T01:09:12.108Z,21.19
2019-06-15T01:11:43.818Z,21.18
2019-06-15T01:14:15.472Z,21.17
2019-06-15T01:16:47.872Z,21.14
2019-06-15T01:19:19.494Z,21.14
2019-06-15T01:21:51.653Z,21.12
2019-06-15T01:24:23.420Z,21.10
2019-06-15T01:26:55.114Z,21.10
2019-06-15T01:29:27.102Z,21.09
2019-06-15T01:31:59.387Z,21.07
2019-06-15T01:34:31.122Z,21.05
2019-06-15T01:37:03.233Z,21.04
2019-06-15T01:39:34.978Z,21.03
2019-06-15T01:42:06.619Z,21.03
2019-06-15T01:44:38.512Z,20.98
2019-06-15T01:47:10.908Z,21.01
2019-06-15T01:49:42.910Z,21.02
2019-06-15T01:52:14.572Z,21.05
2019-06-15T01:54:46.217Z,21.08
2019-06-15T01:57:17.949Z,21.10
2019-06-15T01:59:49.676Z,21.11
2019-06-15T02:02:22.188Z,21.12
2019-06-15T02:04:53.908Z,21.13
2019-06-15T02:07:25.574Z,21.16
2019-06-15T02:09:57.222Z,21.16
2019-06-15T02:12:28.885Z,21.17
2019-06-15T02:15:00.656Z,21.12
2019-06-15T02:17:32.846Z,21.04
2019-06-15T02:20:06.309Z,20.94
2019-06-15T02:22:37.923Z,20.89
2019-06-15T02:25:09.972Z,20.85
2019-06-15T02:27:41.685Z,20.79
2019-06-15T02:30:14.351Z,20.77
2019-06-15T02:32:46.087Z,20.77
2019-06-15T02:35:18.110Z,20.77
2019-06-15T02:37:49.885Z,20.78
2019-06-15T02:40:21.828Z,20.77
2019-06-15T02:42:53.494Z,20.77
2019-06-15T02:45:26.479Z,20.78
2019-06-15T02:47:58.276Z,20.78
2019-06-15T02:50:30.630Z,20.78
2019-06-15T02:53:02.299Z,20.77
2019-06-15T02:55:33.961Z,20.69
2019-06-15T02:58:05.786Z,20.59
2019-06-15T03:00:50.659Z,20.47
2019-06-15T03:03:22.311Z,20.37
2019-06-15T03:05:55.184Z,20.32
2019-06-15T03:08:27.313Z,20.27
2019-06-15T03:10:58.962Z,20.22
2019-06-15T03:13:30.705Z,20.16
2019-06-15T03:16:02.412Z,20.12
2019-06-15T03:18:34.429Z,20.09
2019-06-15T03:21:06.568Z,20.06
2019-06-15T03:23:38.297Z,20.01
2019-06-15T03:26:09.991Z,19.98
2019-06-15T03:28:41.592Z,19.97
2019-06-15T03:31:13.341Z,19.97
2019-06-15T03:33:45.056Z,19.97
2019-06-15T03:36:17.088Z,19.99
2019-06-15T03:38:48.927Z,20.01
2019-06-15T03:41:20.673Z,20.04
2019-06-15T03:43:52.495Z,20.06
2019-06-15T03:46:24.151Z,20.09
2019-06-15T03:48:55.832Z,20.10
2019-06-15T03:51:29.747Z,20.14
2019-06-15T03:54:01.440Z,20.17
2019-06-15T03:56:33.207Z,20.19
2019-06-15T03:59:04.881Z,20.23
2019-06-15T04:01:45.310Z,20.26
2019-06-15T04:04:17.043Z,20.28
2019-06-15T04:06:49.144Z,20.31
2019-06-15T04:09:20.783Z,20.34
2019-06-15T04:11:52.540Z,20.39
2019-06-15T04:14:26.068Z,20.40
2019-06-15T04:16:59.307Z,20.50
2019-06-15T04:19:32.488Z,20.56
2019-06-15T04:22:06.180Z,20.63
2019-06-15T04:24:38.503Z,20.69
2019-06-15T04:27:11.847Z,20.75
2019-06-15T04:29:45.112Z,20.81
2019-06-15T04:32:17.079Z,20.88
2019-06-15T04:34:48.710Z,20.95
2019-06-15T04:37:20.373Z,21.02
2019-06-15T04:39:52.350Z,21.09
2019-06-15T04:42:24.057Z,21.17
2019-06-15T04:44:55.837Z,21.22
2019-06-15T04:47:27.684Z,21.25
2019-06-15T04:49:59.365Z,21.28
2019-06-15T04:52:31.365Z,21.31
2019-06-15T04:55:04.082Z,21.36
2019-06-15T04:57:35.727Z,21.43
2019-06-15T05:00:09.394Z,21.51
2019-06-15T05:02:41.097Z,21.58
2019-06-15T05:05:13.251Z,21.58
2019-06-15T05:07:45.074Z,21.56
2019-06-15T05:10:17.420Z,21.55
2019-06-15T05:12:49.312Z,21.55
2019-06-15T05:15:21.136Z,21.56
2019-06-15T05:17:52.862Z,21.56
2019-06-15T05:20:24.879Z,21.56
2019-06-15T05:22:56.515Z,21.55
2019-06-15T05:25:28.885Z,21.58
2019-06-15T05:28:00.540Z,21.61
2019-06-15T05:30:32.768Z,21.64
2019-06-15T05:33:04.566Z,21.66
2019-06-15T05:35:36.219Z,21.68
2019-06-15T05:38:07.929Z,21.66
2019-06-15T05:40:40.232Z,21.68
2019-06-15T05:43:12.215Z,21.71
2019-06-15T05:45:44.133Z,21.74
2019-06-15T05:48:15.825Z,21.77
2019-06-15T05:50:47.557Z,21.80
2019-06-15T05:53:19.239Z,21.82
2019-06-15T05:55:51.717Z,21.82
2019-06-15T05:58:23.930Z,21.86
2019-06-15T06:00:55.828Z,21.85
2019-06-15T06:03:28.469Z,21.87
2019-06-15T06:06:01.164Z,21.89
2019-06-15T06:08:32.780Z,21.92
2019-06-15T06:11:05.321Z,21.96
2019-06-15T06:13:35.953Z,22.03
2019-06-15T06:16:06.635Z,22.09
2019-06-15T06:18:38.354Z,22.21
2019-06-15T06:21:10.252Z,22.39
2019-06-15T06:23:42.034Z,22.62
2019-06-15T06:26:13.888Z,22.83
2019-06-15T06:28:56.929Z,22.92
2019-06-15T06:31:19.134Z,22.98
2019-06-15T06:33:51.227Z,23.03
2019-06-15T06:36:23.351Z,23.08
2019-06-15T06:38:55.060Z,23.12
2019-06-15T06:41:26.882Z,23.16
2019-06-15T06:43:58.791Z,23.12
2019-06-15T06:46:30.548Z,23.16
2019-06-15T06:49:02.269Z,23.16
2019-06-15T06:51:34.390Z,23.16
2019-06-15T06:54:06.514Z,23.19
2019-06-15T06:56:38.194Z,23.23
2019-06-15T06:59:10.075Z,23.33
2019-06-15T07:01:41.996Z,23.44
2019-06-15T07:04:13.820Z,23.52
2019-06-15T07:06:45.557Z,23.59
2019-06-15T07:09:17.353Z,23.65
2019-06-15T07:11:49.206Z,23.71
2019-06-15T07:14:24.078Z,23.72
2019-06-15T07:16:55.754Z,23.74
2019-06-15T07:19:27.839Z,23.72
2019-06-15T07:21:59.757Z,23.71
2019-06-15T07:24:31.940Z,23.76
2019-06-15T07:27:03.641Z,23.84
2019-06-15T07:29:35.597Z,23.97
2019-06-15T07:32:07.268Z,24.11
2019-06-15T07:34:38.990Z,24.21
2019-06-15T07:37:10.665Z,24.19
2019-06-15T07:39:42.400Z,24.14
2019-06-15T07:42:14.248Z,24.10
2019-06-15T07:44:46.240Z,24.12
2019-06-15T07:47:17.939Z,24.18
2019-06-15T07:49:49.754Z,24.28
2019-06-15T07:52:21.638Z,24.38
2019-06-15T07:54:53.416Z,24.39
2019-06-15T07:57:25.217Z,24.37
2019-06-15T07:59:57.058Z,24.37
2019-06-15T08:02:28.702Z,24.43
2019-06-15T08:05:01.343Z,24.51
2019-06-15T08:07:33.100Z,24.58
2019-06-15T08:10:05.814Z,24.64
2019-06-15T08:12:37.476Z,24.66
2019-06-15T08:15:10.340Z,24.66
2019-06-15T08:17:45.424Z,24.64
2019-06-15T08:20:18.240Z,24.63
2019-06-15T08:22:49.892Z,24.63
2019-06-15T08:25:21.954Z,24.63
2019-06-15T08:27:53.869Z,24.64
2019-06-15T08:30:39.887Z,24.71
2019-06-15T08:33:11.712Z,24.76
2019-06-15T08:35:43.718Z,24.78
2019-06-15T08:38:15.411Z,24.80
2019-06-15T08:40:47.267Z,24.84
2019-06-15T08:43:18.941Z,24.87
2019-06-15T08:45:50.757Z,24.93
2019-06-15T08:48:22.665Z,25.02
2019-06-15T08:50:54.556Z,25.14
2019-06-15T08:53:26.229Z,25.29
2019-06-15T08:55:58.039Z,25.46
2019-06-15T08:58:29.779Z,25.62
2019-06-15T09:01:01.726Z,25.70
2019-06-15T09:03:33.818Z,25.73
2019-06-15T09:06:05.562Z,25.78
2019-06-15T09:08:37.376Z,25.85
2019-06-15T09:11:09.119Z,25.95
2019-06-15T09:13:40.817Z,26.06
2019-06-15T09:16:12.592Z,26.16
2019-06-15T09:18:45.039Z,26.24
2019-06-15T09:21:16.778Z,26.24
2019-06-15T09:23:48.605Z,26.22
2019-06-15T09:26:20.373Z,26.17
2019-06-15T09:28:52.278Z,26.16
2019-06-15T09:31:24.644Z,26.16
2019-06-15T09:33:56.473Z,26.13
2019-06-15T09:36:28.240Z,26.10
2019-06-15T09:38:59.910Z,26.05
2019-06-15T09:41:31.828Z,26.02
2019-06-15T09:44:03.549Z,26.04
2019-06-15T09:46:35.879Z,26.04
2019-06-15T09:49:07.684Z,26.06
2019-06-15T09:51:39.479Z,26.09
2019-06-15T09:54:11.288Z,26.12
2019-06-15T09:56:42.966Z,26.17
2019-06-15T09:59:25.552Z,26.24
2019-06-15T10:01:48.709Z,26.35
2019-06-15T10:04:22.380Z,26.42
2019-06-15T10:06:55.577Z,26.54
2019-06-15T10:09:28.985Z,26.65
2019-06-15T10:12:01.140Z,26.70
2019-06-15T10:14:33.650Z,26.75
2019-06-15T10:17:06.338Z,26.78
2019-06-15T10:19:38.195Z,26.77
2019-06-15T10:22:09.970Z,26.70
2019-06-15T10:24:41.684Z,26.62
2019-06-15T10:27:13.504Z,26.55
2019-06-15T10:29:46.075Z,26.54
2019-06-15T10:32:18.198Z,26.58
2019-06-15T10:34:51.145Z,26.56
2019-06-15T10:37:23.168Z,26.58
2019-06-15T10:39:55.211Z,26.65
2019-06-15T10:42:26.903Z,26.75
2019-06-15T10:44:58.647Z,26.88
2019-06-15T10:47:32.647Z,26.95
2019-06-15T10:50:04.842Z,26.98
2019-06-15T10:52:37.104Z,26.96
2019-06-15T10:55:09.954Z,26.93
2019-06-15T10:57:42.558Z,26.89
2019-06-15T11:00:17.367Z,26.80
2019-06-15T11:02:49.050Z,26.73
2019-06-15T11:05:22.613Z,26.71
2019-06-15T11:07:54.904Z,26.72
2019-06-15T11:10:42.339Z,26.76
2019-06-15T11:13:14.047Z,26.80
2019-06-15T11:15:46.142Z,26.83
2019-06-15T11:18:17.975Z,26.87
2019-06-15T11:20:50.206Z,26.93
2019-06-15T11:23:22.306Z,26.98
2019-06-15T11:25:54.939Z,27.10
2019-06-15T11:28:26.609Z,27.22
2019-06-15T11:30:58.578Z,27.30
2019-06-15T11:33:30.754Z,27.35
2019-06-15T11:36:02.653Z,27.35
2019-06-15T11:38:35.049Z,27.27
2019-06-15T11:41:07.262Z,27.25
2019-06-15T11:43:38.998Z,27.20
2019-06-15T11:46:10.805Z,27.22
2019-06-15T11:48:42.520Z,27.26
2019-06-15T11:51:14.389Z,27.36
2019-06-15T11:53:46.241Z,27.49
2019-06-15T11:56:18.175Z,27.54
2019-06-15T11:58:49.876Z,27.50
2019-06-15T12:01:21.683Z,27.45
2019-06-15T12:03:53.585Z,27.46
2019-06-15T12:06:25.358Z,27.42
2019-06-15T12:08:57.177Z,27.36
2019-06-15T12:11:29.110Z,27.36
2019-06-15T12:14:00.891Z,27.36
2019-06-15T12:16:32.610Z,27.40
2019-06-15T12:19:04.555Z,27.57
2019-06-15T12:21:36.269Z,27.67
2019-06-15T12:24:08.095Z,27.76
2019-06-15T12:26:40.010Z,27.86
2019-06-15T12:29:11.853Z,27.91
2019-06-15T12:31:44.047Z,27.89
2019-06-15T12:34:16.446Z,27.88
2019-06-15T12:36:48.252Z,27.86
2019-06-15T12:39:19.986Z,27.81
2019-06-15T12:41:51.942Z,27.79
2019-06-15T12:44:24.046Z,27.91
2019-06-15T12:46:55.836Z,28.00
2019-06-15T12:49:27.522Z,28.09
2019-06-15T12:51:59.389Z,28.19
2019-06-15T12:54:31.140Z,28.32
2019-06-15T12:57:03.388Z,28.42
2019-06-15T12:59:35.283Z,28.46
2019-06-15T13:02:07.398Z,28.44
2019-06-15T13:04:39.137Z,28.39
2019-06-15T13:07:10.937Z,28.30
2019-06-15T13:09:42.683Z,28.17
2019-06-15T13:12:14.488Z,28.09
2019-06-15T13:14:46.377Z,28.10
2019-06-15T13:17:18.129Z,28.12
2019-06-15T13:19:49.981Z,28.15
2019-06-15T13:22:21.737Z,28.17
2019-06-15T13:24:53.520Z,28.15
2019-06-15T13:27:25.295Z,28.19
2019-06-15T13:29:57.168Z,28.17
2019-06-15T13:32:28.917Z,28.15
2019-06-15T13:35:00.702Z,28.15
2019-06-15T13:37:41.663Z,28.16
2019-06-15T13:40:06.208Z,28.19
2019-06-15T13:42:37.926Z,28.21
2019-06-15T13:45:10.664Z,28.23
2019-06-15T13:47:42.432Z,28.29
2019-06-15T13:50:15.818Z,28.40
2019-06-15T13:52:47.614Z,28.52
2019-06-15T13:55:22.015Z,28.67
2019-06-15T13:57:53.938Z,28.75
2019-06-15T14:00:25.963Z,28.80
2019-06-15T14:02:57.771Z,28.82
2019-06-15T14:05:29.744Z,28.85
2019-06-15T14:08:01.456Z,28.88
2019-06-15T14:10:33.239Z,28.97
2019-06-15T14:13:05.002Z,29.05
2019-06-15T14:15:36.856Z,29.11
2019-06-15T14:18:08.677Z,29.26
2019-06-15T14:20:40.476Z,29.36
2019-06-15T14:23:12.280Z,29.42
2019-06-15T14:25:44.013Z,29.42
2019-06-15T14:28:16.056Z,29.39
2019-06-15T14:30:47.744Z,29.38
2019-06-15T14:33:19.599Z,29.38
2019-06-15T14:35:51.298Z,29.36
2019-06-15T14:38:23.011Z,29.37
2019-06-15T14:40:54.796Z,29.35
2019-06-15T14:43:26.564Z,29.33
2019-06-15T14:45:59.914Z,29.30
2019-06-15T14:48:31.853Z,29.29
2019-06-15T14:51:03.614Z,29.31
2019-06-15T14:53:36.684Z,29.33
2019-06-15T14:56:08.905Z,29.33
2019-06-15T14:58:40.639Z,29.28
2019-06-15T15:01:12.291Z,29.20
2019-06-15T15:03:47.089Z,29.17
2019-06-15T15:06:17.799Z,29.15
2019-06-15T15:08:49.634Z,29.15
2019-06-15T15:11:21.298Z,29.13
2019-06-15T15:13:53.061Z,29.11
2019-06-15T15:16:25.061Z,29.14
2019-06-15T15:18:58.084Z,29.16
2019-06-15T15:21:30.005Z,29.14
2019-06-15T15:24:01.693Z,29.09
2019-06-15T15:26:33.664Z,29.01
2019-06-15T15:29:07.020Z,28.96
2019-06-15T15:31:38.940Z,28.93
2019-06-15T15:34:11.195Z,28.90
2019-06-15T15:36:42.952Z,28.88
2019-06-15T15:39:16.721Z,28.88
2019-06-15T15:41:48.364Z,28.87
2019-06-15T15:44:20.079Z,28.89
2019-06-15T15:46:51.870Z,28.93
2019-06-15T15:49:23.772Z,28.96
2019-06-15T15:51:56.632Z,29.01
2019-06-15T15:54:28.481Z,29.06
2019-06-15T15:57:00.218Z,29.11
2019-06-15T15:59:32.025Z,29.10
2019-06-15T16:02:03.754Z,29.09
2019-06-15T16:04:37.095Z,29.02
2019-06-15T16:07:08.909Z,29.00
2019-06-15T16:09:41.122Z,28.89
2019-06-15T16:12:12.863Z,28.77
2019-06-15T16:14:44.619Z,28.69
2019-06-15T16:17:16.655Z,28.64
2019-06-15T16:19:48.922Z,28.63
2019-06-15T16:22:20.778Z,28.62
2019-06-15T16:24:52.504Z,28.62
2019-06-15T16:27:26.363Z,28.61
2019-06-15T16:29:57.763Z,28.60
2019-06-15T16:32:29.516Z,28.58
2019-06-15T16:35:01.336Z,28.58
2019-06-15T16:37:33.179Z,28.55
2019-06-15T16:40:05.364Z,28.53
2019-06-15T16:42:37.059Z,28.49
2019-06-15T16:45:08.963Z,28.47
2019-06-15T16:47:40.699Z,28.47
2019-06-15T16:50:12.744Z,28.45
2019-06-15T16:52:46.805Z,28.45
2019-06-15T16:55:18.033Z,28.45
2019-06-15T16:57:49.758Z,28.44
2019-06-15T17:00:21.953Z,28.45
2019-06-15T17:02:54.378Z,28.44
2019-06-15T17:05:27.447Z,28.43
2019-06-15T17:07:59.422Z,28.40
2019-06-15T17:10:38.712Z,28.36
2019-06-15T17:13:10.926Z,28.28
2019-06-15T17:15:42.872Z,28.23
2019-06-15T17:18:14.747Z,28.17
2019-06-15T17:20:51.587Z,28.11
2019-06-15T17:23:23.271Z,28.03
2019-06-15T17:25:55.316Z,28.02
2019-06-15T17:28:27.378Z,28.00
2019-06-15T17:30:59.697Z,27.96
2019-06-15T17:33:37.544Z,27.95
2019-06-15T17:36:06.832Z,27.94
2019-06-15T17:38:38.761Z,27.95
2019-06-15T17:41:11.000Z,27.96
2019-06-15T17:43:42.929Z,27.99
2019-06-15T17:46:16.499Z,28.01
2019-06-15T17:48:48.280Z,28.01
2019-06-15T17:51:20.490Z,28.01
2019-06-15T17:53:52.254Z,27.99
2019-06-15T17:56:26.658Z,27.98
2019-06-15T17:58:57.578Z,27.95
2019-06-15T18:01:29.281Z,27.92
2019-06-15T18:04:01.305Z,27.88
2019-06-15T18:06:33.042Z,27.84
2019-06-15T18:09:06.604Z,27.79
2019-06-15T18:11:38.536Z,27.74
2019-06-15T18:14:10.442Z,27.69
2019-06-15T18:16:42.267Z,27.63
2019-06-15T18:19:16.785Z,27.57
2019-06-15T18:21:47.619Z,27.53
2019-06-15T18:24:19.591Z,27.48
2019-06-15T18:26:51.570Z,27.45
2019-06-15T18:29:23.393Z,27.38
2019-06-15T18:31:56.686Z,27.32
2019-06-15T18:34:28.445Z,27.25
2019-06-15T18:37:00.312Z,27.18
2019-06-15T18:39:32.600Z,27.11
2019-06-15T18:42:04.387Z,27.04
2019-06-15T18:44:36.643Z,26.98
2019-06-15T18:47:08.514Z,26.90
2019-06-15T18:49:40.203Z,26.85
2019-06-15T18:52:12.116Z,26.81
2019-06-15T18:54:46.632Z,26.78
2019-06-15T18:57:18.106Z,26.72
2019-06-15T18:59:49.853Z,26.65
2019-06-15T19:02:21.618Z,26.60
2019-06-15T19:04:53.360Z,26.54
2019-06-15T19:07:26.997Z,26.49
2019-06-15T19:09:59.190Z,26.43
2019-06-15T19:12:31.336Z,26.37
2019-06-15T19:15:03.577Z,26.29
2019-06-15T19:17:37.064Z,26.19
2019-06-15T19:20:10.564Z,26.11
2019-06-15T19:22:42.522Z,26.03
2019-06-15T19:25:16.186Z,25.95
2019-06-15T19:27:48.063Z,25.89
2019-06-15T19:30:20.503Z,25.82
2019-06-15T19:32:52.394Z,25.74
2019-06-15T19:35:26.328Z,25.69
2019-06-15T19:37:58.185Z,25.64
2019-06-15T19:40:30.071Z,25.58
2019-06-15T19:43:02.075Z,25.51
2019-06-15T19:45:33.936Z,25.45
2019-06-15T19:48:06.877Z,25.38
2019-06-15T19:50:38.929Z,25.33
2019-06-15T19:53:10.629Z,25.28
2019-06-15T19:55:42.741Z,25.25
2019-06-15T19:58:16.767Z,25.23
2019-06-15T20:00:50.336Z,25.19
2019-06-15T20:03:23.675Z,25.16
2019-06-15T20:05:56.954Z,25.11
2019-06-15T20:08:30.389Z,25.05
2019-06-15T20:11:04.021Z,25.01
2019-06-15T20:13:37.048Z,24.95
2019-06-15T20:16:09.048Z,24.93
2019-06-15T20:18:40.868Z,24.86
2019-06-15T20:21:12.852Z,24.81
2019-06-15T20:23:46.859Z,24.75
2019-06-15T20:26:18.216Z,24.71
2019-06-15T20:28:50.093Z,24.68
2019-06-15T20:31:21.955Z,24.67
2019-06-15T20:33:53.849Z,24.66
2019-06-15T20:36:26.898Z,24.65
2019-06-15T20:39:01.011Z,24.66
2019-06-15T20:41:32.775Z,24.68
2019-06-15T20:44:04.764Z,24.70
2019-06-15T20:46:37.253Z,24.70
2019-06-15T20:49:09.420Z,24.72
2019-06-15T20:51:41.217Z,24.74
2019-06-15T20:54:12.987Z,24.74
2019-06-15T20:56:46.171Z,24.74
2019-06-15T20:59:17.927Z,24.72
2019-06-15T21:01:49.668Z,24.71
2019-06-15T21:04:21.452Z,24.68
2019-06-15T21:06:53.470Z,24.65
2019-06-15T21:09:27.528Z,24.63
2019-06-15T21:11:58.977Z,24.60
2019-06-15T21:14:30.764Z,24.59
2019-06-15T21:17:02.683Z,24.58
2019-06-15T21:19:36.065Z,24.57
2019-06-15T21:22:08.170Z,24.58
2019-06-15T21:24:39.896Z,24.58
2019-06-15T21:27:11.945Z,24.58
2019-06-15T21:29:43.771Z,24.55
2019-06-15T21:32:16.115Z,24.52
2019-06-15T21:34:47.925Z,24.46
2019-06-15T21:37:19.693Z,24.42
2019-06-15T21:39:51.542Z,24.36
2019-06-15T21:42:23.428Z,24.31
2019-06-15T21:44:56.222Z,24.28
2019-06-15T21:47:28.135Z,24.26
2019-06-15T21:49:59.868Z,24.27
2019-06-15T21:52:31.961Z,24.28
2019-06-15T21:55:03.661Z,24.30
2019-06-15T21:57:36.529Z,24.31
2019-06-15T22:00:13.527Z,24.33
2019-06-15T22:02:47.189Z,24.34
2019-06-15T22:05:21.887Z,24.34
2019-06-15T22:07:56.638Z,24.32
2019-06-15T22:10:27.990Z,24.31
2019-06-15T22:12:59.869Z,24.30
2019-06-15T22:15:31.948Z,24.29
2019-06-15T22:18:03.780Z,24.29
2019-06-15T22:20:35.988Z,24.32
2019-06-15T22:23:07.918Z,24.34
2019-06-15T22:25:39.728Z,24.37
2019-06-15T22:28:11.963Z,24.37
2019-06-15T22:30:46.235Z,24.37
2019-06-15T22:33:17.831Z,24.35
2019-06-15T22:35:49.576Z,24.35
2019-06-15T22:38:21.343Z,24.33
2019-06-15T22:40:53.302Z,24.31
2019-06-15T22:43:27.129Z,24.30
2019-06-15T22:45:58.591Z,24.27
2019-06-15T22:48:30.464Z,24.24
2019-06-15T22:51:02.309Z,24.22
2019-06-15T22:53:36.493Z,24.11
2019-06-15T22:56:08.057Z,24.07
2019-06-15T22:58:39.772Z,23.98
2019-06-15T23:01:11.759Z,23.87
2019-06-15T23:03:46.321Z,23.77
2019-06-15T23:06:16.968Z,23.66
2019-06-15T23:08:48.827Z,23.56
2019-06-15T23:11:20.578Z,23.50
2019-06-15T23:13:52.234Z,23.42
2019-06-15T23:16:26.758Z,23.36
2019-06-15T23:18:57.827Z,23.26
2019-06-15T23:21:29.928Z,23.16
2019-06-15T23:24:01.768Z,23.06
2019-06-15T23:26:33.514Z,23.01
2019-06-15T23:29:06.948Z,22.93
2019-06-15T23:31:38.956Z,22.87
2019-06-15T23:34:10.771Z,22.82
2019-06-15T23:36:54.273Z,22.80
2019-06-15T23:39:17.954Z,22.77
2019-06-15T23:41:49.948Z,22.75
2019-06-15T23:44:27.016Z,22.69
2019-06-15T23:47:01.973Z,22.65
2019-06-15T23:49:36.526Z,22.61
2019-06-15T23:52:07.632Z,22.57
2019-06-15T23:54:39.518Z,22.56
2019-06-15T23:57:14.028Z,22.56
2019-06-15T23:59:46.542Z,22.56
